createdAt,value
2022-11-23T00:00:30.283Z,980.30
2022-11-23T00:01:30.273Z,980.30
2022-11-23T00:02:30.326Z,980.29
2022-11-23T00:03:31.465Z,980.27
2022-11-23T00:04:30.248Z,980.32
2022-11-23T00:05:30.237Z,980.25
2022-11-23T00:06:30.168Z,980.25
2022-11-23T00:07:30.245Z,980.32
2022-11-23T00:08:30.206Z,980.22
2022-11-23T00:09:30.742Z,980.25
2022-11-23T00:10:30.237Z,980.23
2022-11-23T00:11:30.206Z,980.28
2022-11-23T00:12:30.178Z,980.26
2022-11-23T00:13:30.188Z,980.26
2022-11-23T00:14:30.219Z,980.33
2022-11-23T00:15:30.118Z,980.29
2022-11-23T00:16:30.164Z,980.26
2022-11-23T00:17:30.115Z,980.29
2022-11-23T00:19:03.420Z,980.29
2022-11-23T00:19:30.296Z,980.24
2022-11-23T00:20:30.100Z,980.29
2022-11-23T00:21:30.098Z,980.28
2022-11-23T00:22:30.091Z,980.29
2022-11-23T00:23:30.071Z,980.38
2022-11-23T00:24:30.004Z,980.22
2022-11-23T00:25:29.979Z,980.30
2022-11-23T00:26:30.135Z,980.34
2022-11-23T00:27:29.965Z,980.33
2022-11-23T00:28:29.932Z,980.33
2022-11-23T00:29:30.324Z,980.32
2022-11-23T00:30:30.223Z,980.31
2022-11-23T00:31:31.016Z,980.32
2022-11-23T00:32:30.123Z,980.27
2022-11-23T00:33:30.007Z,980.30
2022-11-23T00:34:29.975Z,980.35
2022-11-23T00:35:30.024Z,980.33
2022-11-23T00:36:30.003Z,980.34
2022-11-23T00:37:29.966Z,980.33
2022-11-23T00:38:29.995Z,980.29
2022-11-23T00:39:30.267Z,980.30
2022-11-23T00:40:29.866Z,980.29
2022-11-23T00:41:29.962Z,980.30
2022-11-23T00:42:33.752Z,980.33
2022-11-23T00:43:31.890Z,980.35
2022-11-23T00:44:29.945Z,980.29
2022-11-23T00:45:29.855Z,980.34
2022-11-23T00:46:29.849Z,980.31
2022-11-23T00:47:29.983Z,980.41
2022-11-23T00:48:29.935Z,980.45
2022-11-23T00:49:30.142Z,980.39
2022-11-23T00:50:29.887Z,980.33
2022-11-23T00:51:29.992Z,980.38
2022-11-23T00:52:29.953Z,980.43
2022-11-23T00:53:29.952Z,980.48
2022-11-23T00:54:29.887Z,980.52
2022-11-23T00:55:29.981Z,980.47
2022-11-23T00:56:29.858Z,980.41
2022-11-23T00:57:29.861Z,980.49
2022-11-23T00:58:29.896Z,980.41
2022-11-23T00:59:30.347Z,980.47
2022-11-23T01:00:29.807Z,980.44
2022-11-23T01:01:29.807Z,980.44
2022-11-23T01:02:29.818Z,980.44
2022-11-23T01:03:29.748Z,980.40
2022-11-23T01:04:29.713Z,980.45
2022-11-23T01:05:29.687Z,980.40
2022-11-23T01:06:29.710Z,980.42
2022-11-23T01:07:29.731Z,980.38
2022-11-23T01:08:29.674Z,980.32
2022-11-23T01:09:30.110Z,980.40
2022-11-23T01:10:29.651Z,980.45
2022-11-23T01:11:29.654Z,980.42
2022-11-23T01:12:29.649Z,980.38
2022-11-23T01:13:29.672Z,980.46
2022-11-23T01:14:29.850Z,980.41
2022-11-23T01:15:29.698Z,980.49
2022-11-23T01:16:29.770Z,980.34
2022-11-23T01:17:29.739Z,980.42
2022-11-23T01:18:29.797Z,980.43
2022-11-23T01:19:30.049Z,980.39
2022-11-23T01:20:29.741Z,980.40
2022-11-23T01:21:29.660Z,980.44
2022-11-23T01:22:29.619Z,980.35
2022-11-23T01:23:29.650Z,980.45
2022-11-23T01:24:29.633Z,980.45
2022-11-23T01:25:29.695Z,980.46
2022-11-23T01:26:29.663Z,980.41
2022-11-23T01:27:29.609Z,980.44
2022-11-23T01:28:29.669Z,980.44
2022-11-23T01:29:29.863Z,980.45
2022-11-23T01:30:29.673Z,980.44
2022-11-23T01:31:29.715Z,980.40
2022-11-23T01:32:29.512Z,980.45
2022-11-23T01:33:29.493Z,980.48
2022-11-23T01:34:29.633Z,980.50
2022-11-23T01:35:29.459Z,980.56
2022-11-23T01:36:29.562Z,980.52
2022-11-23T01:37:29.477Z,980.55
2022-11-23T01:38:29.436Z,980.58
2022-11-23T01:39:29.875Z,980.61
2022-11-23T01:40:29.477Z,980.60
2022-11-23T01:41:29.672Z,980.66
2022-11-23T01:42:29.521Z,980.67
2022-11-23T01:43:29.519Z,980.67
2022-11-23T01:44:29.542Z,980.64
2022-11-23T01:45:29.533Z,980.69
2022-11-23T01:46:29.526Z,980.67
2022-11-23T01:47:29.545Z,980.71
2022-11-23T01:48:29.504Z,980.53
2022-11-23T01:49:29.726Z,980.67
2022-11-23T01:50:29.447Z,980.61
2022-11-23T01:51:29.491Z,980.67
2022-11-23T01:52:29.499Z,980.64
2022-11-23T01:53:29.481Z,980.64
2022-11-23T01:54:29.444Z,980.64
2022-11-23T01:55:29.373Z,980.62
2022-11-23T01:56:29.344Z,980.60
2022-11-23T01:57:29.329Z,980.61
2022-11-23T01:58:29.768Z,980.54
2022-11-23T01:59:29.981Z,980.60
2022-11-23T02:00:29.332Z,980.54
2022-11-23T02:01:29.521Z,980.53
2022-11-23T02:02:29.468Z,980.60
2022-11-23T02:03:29.324Z,980.61
2022-11-23T02:04:29.490Z,980.54
2022-11-23T02:05:29.383Z,980.43
2022-11-23T02:06:29.475Z,980.33
2022-11-23T02:07:29.450Z,980.33
2022-11-23T02:08:29.440Z,980.42
2022-11-23T02:09:29.757Z,980.51
2022-11-23T02:10:29.320Z,980.46
2022-11-23T02:11:29.338Z,980.44
2022-11-23T02:12:29.335Z,980.55
2022-11-23T02:13:29.322Z,980.60
2022-11-23T02:14:29.329Z,980.63
2022-11-23T02:15:29.266Z,980.62
2022-11-23T02:16:29.388Z,980.62
2022-11-23T02:17:29.317Z,980.61
2022-11-23T02:18:29.185Z,980.61
2022-11-23T02:19:29.591Z,980.61
2022-11-23T02:20:29.190Z,980.56
2022-11-23T02:21:29.173Z,980.52
2022-11-23T02:22:29.245Z,980.46
2022-11-23T02:23:29.254Z,980.47
2022-11-23T02:24:29.284Z,980.51
2022-11-23T02:25:29.283Z,980.48
2022-11-23T02:26:29.190Z,980.52
2022-11-23T02:27:29.252Z,980.54
2022-11-23T02:28:29.201Z,980.50
2022-11-23T02:29:29.682Z,980.49
2022-11-23T02:30:29.226Z,980.53
2022-11-23T02:31:29.285Z,980.48
2022-11-23T02:32:29.214Z,980.58
2022-11-23T02:33:29.193Z,980.54
2022-11-23T02:34:29.228Z,980.51
2022-11-23T02:35:29.222Z,980.59
2022-11-23T02:36:29.094Z,980.54
2022-11-23T02:37:29.083Z,980.45
2022-11-23T02:38:29.146Z,980.50
2022-11-23T02:39:29.284Z,980.56
2022-11-23T02:40:29.151Z,980.57
2022-11-23T02:41:29.135Z,980.49
2022-11-23T02:42:29.173Z,980.50
2022-11-23T02:43:29.174Z,980.52
2022-11-23T02:44:29.108Z,980.50
2022-11-23T02:45:29.093Z,980.49
2022-11-23T02:46:29.155Z,980.50
2022-11-23T02:47:29.076Z,980.58
2022-11-23T02:48:29.145Z,980.59
2022-11-23T02:49:29.239Z,980.56
2022-11-23T02:50:29.119Z,980.64
2022-11-23T02:51:29.119Z,980.64
2022-11-23T02:52:29.110Z,980.56
2022-11-23T02:53:29.227Z,980.62
2022-11-23T02:54:29.016Z,980.58
2022-11-23T02:55:28.954Z,980.62
2022-11-23T02:56:28.933Z,980.66
2022-11-23T02:57:30.054Z,980.61
2022-11-23T02:58:29.940Z,980.56
2022-11-23T02:59:29.151Z,980.64
2022-11-23T03:00:28.970Z,980.64
2022-11-23T03:01:29.032Z,980.63
2022-11-23T03:02:29.384Z,980.68
2022-11-23T03:03:28.894Z,980.63
2022-11-23T03:04:28.975Z,980.60
2022-11-23T03:05:28.929Z,980.49
2022-11-23T03:06:28.948Z,980.59
2022-11-23T03:07:29.000Z,980.63
2022-11-23T03:08:29.012Z,980.59
2022-11-23T03:09:29.039Z,980.62
2022-11-23T03:10:28.963Z,980.58
2022-11-23T03:11:28.934Z,980.56
2022-11-23T03:12:28.936Z,980.53
2022-11-23T03:13:28.978Z,980.56
2022-11-23T03:14:28.919Z,980.51
2022-11-23T03:15:28.839Z,980.49
2022-11-23T03:16:28.776Z,980.52
2022-11-23T03:17:28.880Z,980.66
2022-11-23T03:18:28.794Z,980.64
2022-11-23T03:19:29.010Z,980.55
2022-11-23T03:20:28.765Z,980.56
2022-11-23T03:21:28.819Z,980.58
2022-11-23T03:22:28.771Z,980.57
2022-11-23T03:23:28.830Z,980.64
2022-11-23T03:24:28.895Z,980.56
2022-11-23T03:25:28.882Z,980.62
2022-11-23T03:26:28.824Z,980.62
2022-11-23T03:27:28.805Z,980.57
2022-11-23T03:28:28.889Z,980.65
2022-11-23T03:29:28.947Z,980.59
2022-11-23T03:30:48.731Z,980.63
2022-11-23T03:31:29.871Z,980.67
2022-11-23T03:32:29.033Z,980.61
2022-11-23T03:33:28.754Z,980.59
2022-11-23T03:34:28.792Z,980.61
2022-11-23T03:35:28.762Z,980.63
2022-11-23T03:36:28.844Z,980.64
2022-11-23T03:37:29.656Z,980.60
2022-11-23T03:38:28.672Z,980.66
2022-11-23T03:39:28.651Z,980.59
2022-11-23T03:40:28.721Z,980.60
2022-11-23T03:41:28.788Z,980.56
2022-11-23T03:42:28.703Z,980.64
2022-11-23T03:43:28.681Z,980.65
2022-11-23T03:44:28.683Z,980.68
2022-11-23T03:45:28.665Z,980.66
2022-11-23T03:46:28.715Z,980.63
2022-11-23T03:47:28.679Z,980.67
2022-11-23T03:48:28.675Z,980.59
2022-11-23T03:49:28.727Z,980.66
2022-11-23T03:50:28.653Z,980.63
2022-11-23T03:51:28.682Z,980.61
2022-11-23T03:52:28.700Z,980.62
2022-11-23T03:53:28.626Z,980.69
2022-11-23T03:54:28.504Z,980.63
2022-11-23T03:55:28.532Z,980.62
2022-11-23T03:56:28.541Z,980.64
2022-11-23T03:57:28.602Z,980.63
2022-11-23T03:58:28.614Z,980.65
2022-11-23T03:59:28.572Z,980.66
2022-11-23T04:00:28.469Z,980.63
2022-11-23T04:01:28.540Z,980.67
2022-11-23T04:02:28.667Z,980.63
2022-11-23T04:03:29.045Z,980.64
2022-11-23T04:04:28.502Z,980.64
2022-11-23T04:05:28.523Z,980.62
2022-11-23T04:06:28.528Z,980.71
2022-11-23T04:07:28.523Z,980.67
2022-11-23T04:08:28.546Z,980.64
2022-11-23T04:09:28.488Z,980.67
2022-11-23T04:10:28.499Z,980.63
2022-11-23T04:11:28.501Z,980.68
2022-11-23T04:12:28.536Z,980.64
2022-11-23T04:13:28.453Z,980.62
2022-11-23T04:14:28.522Z,980.71
2022-11-23T04:15:28.369Z,980.66
2022-11-23T04:16:28.369Z,980.62
2022-11-23T04:17:28.449Z,980.67
2022-11-23T04:18:28.522Z,980.69
2022-11-23T04:19:28.522Z,980.63
2022-11-23T04:20:28.502Z,980.63
2022-11-23T04:21:28.453Z,980.58
2022-11-23T04:22:28.448Z,980.70
2022-11-23T04:23:28.367Z,980.67
2022-11-23T04:24:28.384Z,980.65
2022-11-23T04:25:28.428Z,980.73
2022-11-23T04:26:28.338Z,980.64
2022-11-23T04:27:28.359Z,980.62
2022-11-23T04:28:28.349Z,980.63
2022-11-23T04:29:28.409Z,980.63
2022-11-23T04:30:28.382Z,980.68
2022-11-23T04:31:28.254Z,980.65
2022-11-23T04:32:28.321Z,980.65
2022-11-23T04:33:28.223Z,980.64
2022-11-23T04:34:28.460Z,980.70
2022-11-23T04:35:28.360Z,980.63
2022-11-23T04:36:28.337Z,980.60
2022-11-23T04:37:28.258Z,980.64
2022-11-23T04:38:28.280Z,980.67
2022-11-23T04:39:28.336Z,980.74
2022-11-23T04:40:28.278Z,980.70
2022-11-23T04:41:28.333Z,980.70
2022-11-23T04:42:28.211Z,980.66
2022-11-23T04:43:28.331Z,980.65
2022-11-23T04:44:28.241Z,980.65
2022-11-23T04:45:28.228Z,980.67
2022-11-23T04:46:28.316Z,980.64
2022-11-23T04:47:28.137Z,980.64
2022-11-23T04:48:28.115Z,980.62
2022-11-23T04:49:28.227Z,980.62
2022-11-23T04:50:28.191Z,980.71
2022-11-23T04:51:28.179Z,980.67
2022-11-23T04:52:28.274Z,980.70
2022-11-23T04:53:28.177Z,980.62
2022-11-23T04:54:28.157Z,980.71
2022-11-23T04:55:28.152Z,980.72
2022-11-23T04:56:28.145Z,980.73
2022-11-23T04:57:28.153Z,980.65
2022-11-23T04:58:30.298Z,980.65
2022-11-23T04:59:30.659Z,980.67
2022-11-23T05:00:28.130Z,980.63
2022-11-23T05:01:28.161Z,980.72
2022-11-23T05:02:28.128Z,980.69
2022-11-23T05:03:28.398Z,980.64
2022-11-23T05:04:28.025Z,980.73
2022-11-23T05:05:28.006Z,980.61
2022-11-23T05:06:28.035Z,980.63
2022-11-23T05:07:28.056Z,980.66
2022-11-23T05:08:29.056Z,980.61
2022-11-23T05:09:27.977Z,980.59
2022-11-23T05:10:27.943Z,980.62
2022-11-23T05:11:28.067Z,980.60
2022-11-23T05:12:28.042Z,980.53
2022-11-23T05:13:28.023Z,980.60
2022-11-23T05:14:28.073Z,980.53
2022-11-23T05:15:28.062Z,980.64
2022-11-23T05:16:28.033Z,980.59
2022-11-23T05:17:28.019Z,980.58
2022-11-23T05:18:28.010Z,980.61
2022-11-23T05:19:28.134Z,980.65
2022-11-23T05:20:27.921Z,980.64
2022-11-23T05:21:27.964Z,980.62
2022-11-23T05:22:28.062Z,980.64
2022-11-23T05:23:27.925Z,980.59
2022-11-23T05:24:27.928Z,980.58
2022-11-23T05:25:27.897Z,980.63
2022-11-23T05:26:27.953Z,980.61
2022-11-23T05:27:27.953Z,980.64
2022-11-23T05:28:40.308Z,980.59
2022-11-23T05:29:30.139Z,980.59
2022-11-23T05:30:27.888Z,980.69
2022-11-23T05:31:27.942Z,980.72
2022-11-23T05:32:28.084Z,980.72
2022-11-23T05:33:27.961Z,980.81
2022-11-23T05:34:27.946Z,980.86
2022-11-23T05:35:28.820Z,980.90
2022-11-23T05:36:27.931Z,980.89
2022-11-23T05:37:27.898Z,980.92
2022-11-23T05:38:27.863Z,980.92
2022-11-23T05:39:27.922Z,980.91
2022-11-23T05:40:27.891Z,980.94
2022-11-23T05:41:27.918Z,980.95
2022-11-23T05:42:27.999Z,980.96
2022-11-23T05:43:27.761Z,980.99
2022-11-23T05:44:28.503Z,980.96
2022-11-23T05:55:16.740Z,981.02
2022-11-23T05:56:18.006Z,980.98
2022-11-23T05:57:18.005Z,980.98
2022-11-23T05:58:17.955Z,980.98
2022-11-23T05:59:18.029Z,981.03
2022-11-23T06:00:18.051Z,981.00
2022-11-23T06:01:22.569Z,980.96
2022-11-23T06:02:17.966Z,980.96
2022-11-23T06:03:17.897Z,980.95
2022-11-23T06:04:17.911Z,980.99
2022-11-23T06:05:17.897Z,980.97
2022-11-23T06:06:18.181Z,981.01
2022-11-23T06:07:18.001Z,981.05
2022-11-23T06:08:17.948Z,980.96
2022-11-23T06:09:18.057Z,980.98
2022-11-23T06:10:18.001Z,980.96
2022-11-23T06:11:18.010Z,980.95
2022-11-23T06:12:17.999Z,980.93
2022-11-23T06:13:17.940Z,980.95
2022-11-23T06:14:18.039Z,981.06
2022-11-23T06:15:18.958Z,980.89
2022-11-23T06:16:18.022Z,980.97
2022-11-23T06:17:17.960Z,981.01
2022-11-23T06:18:18.006Z,980.97
2022-11-23T06:19:17.950Z,981.02
2022-11-23T06:20:18.043Z,980.98
2022-11-23T06:21:17.947Z,980.99
2022-11-23T06:22:19.870Z,981.00
2022-11-23T06:23:17.877Z,980.98
2022-11-23T06:24:17.790Z,980.97
2022-11-23T06:25:17.814Z,980.95
2022-11-23T06:26:17.748Z,980.95
2022-11-23T06:27:18.280Z,980.90
2022-11-23T06:28:19.255Z,980.98
2022-11-23T06:29:17.804Z,980.99
2022-11-23T06:30:17.930Z,980.98
2022-11-23T06:31:17.861Z,981.08
2022-11-23T06:32:17.891Z,980.92
2022-11-23T06:33:17.807Z,981.00
2022-11-23T06:34:17.836Z,981.05
2022-11-23T06:35:17.771Z,981.03
2022-11-23T06:36:17.789Z,981.04
2022-11-23T06:37:18.674Z,981.04
2022-11-23T06:38:17.787Z,981.06
2022-11-23T06:39:17.900Z,981.16
2022-11-23T06:40:17.830Z,981.06
2022-11-23T06:41:17.850Z,981.11
2022-11-23T06:42:37.761Z,981.14
2022-11-23T06:43:19.620Z,981.13
2022-11-23T06:44:17.725Z,981.09
2022-11-23T06:45:17.768Z,981.17
2022-11-23T06:46:17.696Z,981.17
2022-11-23T06:47:20.757Z,981.09
2022-11-23T06:48:18.644Z,981.14
2022-11-23T06:49:17.609Z,981.09
2022-11-23T06:50:17.567Z,981.13
2022-11-23T06:51:17.641Z,981.16
2022-11-23T06:52:17.527Z,981.22
2022-11-23T06:53:17.647Z,981.17
2022-11-23T06:54:17.699Z,981.26
2022-11-23T06:55:17.657Z,981.09
2022-11-23T06:56:17.644Z,981.16
2022-11-23T06:57:17.647Z,981.23
2022-11-23T06:58:17.652Z,981.21
2022-11-23T06:59:17.587Z,981.19
2022-11-23T07:00:17.624Z,981.28
2022-11-23T07:01:17.726Z,981.29
2022-11-23T07:02:17.650Z,981.29
2022-11-23T07:03:17.475Z,981.30
2022-11-23T07:04:17.690Z,981.28
2022-11-23T07:05:17.622Z,981.28
2022-11-23T07:06:17.711Z,981.32
2022-11-23T07:07:17.668Z,981.41
2022-11-23T07:08:17.641Z,981.38
2022-11-23T07:09:17.447Z,981.38
2022-11-23T07:10:17.498Z,981.31
2022-11-23T07:11:17.488Z,981.37
2022-11-23T07:12:17.570Z,981.38
2022-11-23T07:13:17.515Z,981.30
2022-11-23T07:14:17.579Z,981.41
2022-11-23T07:15:17.458Z,981.37
2022-11-23T07:16:17.505Z,981.34
2022-11-23T07:17:17.794Z,981.46
2022-11-23T07:18:18.524Z,981.33
2022-11-23T07:19:17.506Z,981.36
2022-11-23T07:20:17.453Z,981.42
2022-11-23T07:21:17.454Z,981.38
2022-11-23T07:22:17.415Z,981.36
2022-11-23T07:23:17.568Z,981.39
2022-11-23T07:24:17.476Z,981.48
2022-11-23T07:25:17.478Z,981.43
2022-11-23T07:26:17.298Z,981.43
2022-11-23T07:27:17.343Z,981.39
2022-11-23T07:28:17.451Z,981.52
2022-11-23T07:29:17.389Z,981.42
2022-11-23T07:30:17.367Z,981.45
2022-11-23T07:31:17.262Z,981.45
2022-11-23T07:32:17.277Z,981.53
2022-11-23T07:33:17.291Z,981.53
2022-11-23T07:34:17.395Z,981.46
2022-11-23T07:35:17.364Z,981.51
2022-11-23T07:36:17.402Z,981.54
2022-11-23T07:37:17.366Z,981.45
2022-11-23T07:38:18.339Z,981.63
2022-11-23T07:39:17.388Z,981.47
2022-11-23T07:40:18.295Z,981.60
2022-11-23T07:41:17.326Z,981.41
2022-11-23T07:42:32.224Z,981.53
2022-11-23T07:43:19.181Z,981.60
2022-11-23T07:44:17.339Z,981.48
2022-11-23T07:45:17.310Z,981.52
2022-11-23T07:46:17.306Z,981.58
2022-11-23T07:47:17.235Z,981.59
2022-11-23T07:48:17.177Z,981.58
2022-11-23T07:49:17.189Z,981.56
2022-11-23T07:50:17.361Z,981.53
2022-11-23T07:51:17.134Z,981.52
2022-11-23T07:52:17.136Z,981.59
2022-11-23T07:53:17.142Z,981.57
2022-11-23T07:54:22.160Z,981.56
2022-11-23T07:55:19.231Z,981.58
2022-11-23T07:56:17.116Z,981.59
2022-11-23T07:57:17.230Z,981.54
2022-11-23T07:58:17.194Z,981.60
2022-11-23T07:59:17.234Z,981.50
2022-11-23T08:00:17.191Z,981.54
2022-11-23T08:01:17.207Z,981.56
2022-11-23T08:02:17.235Z,981.62
2022-11-23T08:03:27.768Z,981.62
2022-11-23T08:04:19.036Z,981.56
2022-11-23T08:05:17.145Z,981.58
2022-11-23T08:06:17.244Z,981.52
2022-11-23T08:07:17.141Z,981.61
2022-11-23T08:08:17.132Z,981.60
2022-11-23T08:09:17.120Z,981.59
2022-11-23T08:10:17.108Z,981.58
2022-11-23T08:11:17.102Z,981.61
2022-11-23T08:12:17.067Z,981.66
2022-11-23T08:13:16.964Z,981.58
2022-11-23T08:14:17.010Z,981.61
2022-11-23T08:15:17.001Z,981.66
2022-11-23T08:16:17.063Z,981.67
2022-11-23T08:17:17.089Z,981.67
2022-11-23T08:18:17.051Z,981.69
2022-11-23T08:19:17.016Z,981.69
2022-11-23T08:20:17.061Z,981.75
2022-11-23T08:21:17.077Z,981.67
2022-11-23T08:22:17.087Z,981.64
2022-11-23T08:36:14.319Z,981.74
2022-11-23T08:37:15.585Z,981.68
2022-11-23T08:38:15.585Z,981.71
2022-11-23T08:39:15.503Z,981.67
2022-11-23T08:40:16.660Z,981.75
2022-11-23T08:41:15.496Z,981.74
2022-11-23T08:42:15.453Z,981.80
2022-11-23T08:43:15.479Z,981.67
2022-11-23T08:44:15.433Z,981.70
2022-11-23T08:45:15.467Z,981.70
2022-11-23T08:46:15.400Z,981.77
2022-11-23T08:47:15.430Z,981.80
2022-11-23T08:48:15.389Z,981.80
2022-11-23T08:49:15.605Z,981.80
2022-11-23T08:50:15.477Z,981.71
2022-11-23T08:51:15.624Z,981.74
2022-11-23T08:52:15.496Z,981.72
2022-11-23T08:53:15.461Z,981.82
2022-11-23T08:54:15.471Z,981.66
2022-11-23T08:55:15.446Z,981.71
2022-11-23T08:56:15.466Z,981.73
2022-11-23T08:57:15.425Z,981.66
2022-11-23T08:58:15.485Z,981.68
2022-11-23T08:59:15.436Z,981.73
2022-11-23T09:00:15.445Z,981.75
2022-11-23T09:01:15.473Z,981.70
2022-11-23T09:02:15.300Z,981.74
2022-11-23T09:03:15.317Z,981.76
2022-11-23T09:04:20.351Z,981.80
2022-11-23T09:05:17.317Z,981.74
2022-11-23T09:06:15.454Z,981.77
2022-11-23T09:07:15.426Z,981.72
2022-11-23T09:08:15.265Z,981.77
2022-11-23T09:09:15.717Z,981.73
2022-11-23T09:10:18.591Z,981.76
2022-11-23T09:11:16.265Z,981.84
2022-11-23T09:12:15.269Z,981.82
2022-11-23T09:13:15.307Z,981.86
2022-11-23T09:14:15.635Z,981.73
2022-11-23T09:15:15.335Z,981.85
2022-11-23T09:16:15.312Z,981.70
2022-11-23T09:17:15.305Z,981.81
2022-11-23T09:18:15.280Z,981.83
2022-11-23T09:19:15.300Z,981.80
2022-11-23T09:20:15.340Z,981.84
2022-11-23T09:21:15.322Z,981.83
2022-11-23T09:22:15.265Z,981.80
2022-11-23T09:23:15.292Z,981.80
2022-11-23T09:24:15.342Z,981.81
2022-11-23T09:25:15.287Z,981.80
2022-11-23T09:26:15.272Z,981.83
2022-11-23T09:27:15.241Z,981.78
2022-11-23T09:28:15.218Z,981.82
2022-11-23T09:29:15.315Z,981.79
2022-11-23T09:30:15.235Z,981.81
2022-11-23T09:31:15.336Z,981.85
2022-11-23T09:32:15.207Z,981.82
2022-11-23T09:33:15.290Z,981.82
2022-11-23T09:34:15.165Z,981.88
2022-11-23T09:35:15.291Z,981.91
2022-11-23T09:36:15.268Z,981.82
2022-11-23T09:37:15.200Z,981.88
2022-11-23T09:38:15.156Z,981.89
2022-11-23T09:39:15.162Z,981.92
2022-11-23T09:40:15.132Z,981.85
2022-11-23T09:41:15.113Z,981.89
2022-11-23T09:42:15.122Z,981.82
2022-11-23T09:43:15.093Z,981.91
2022-11-23T09:44:15.032Z,981.88
2022-11-23T09:45:15.044Z,981.84
2022-11-23T09:46:15.261Z,981.88
2022-11-23T09:47:15.050Z,981.81
2022-11-23T09:48:14.922Z,981.86
2022-11-23T09:49:15.089Z,981.93
2022-11-23T09:50:15.005Z,981.90
2022-11-23T09:51:15.101Z,981.89
2022-11-23T09:52:15.163Z,981.88
2022-11-23T09:53:15.111Z,981.93
2022-11-23T09:54:15.083Z,981.90
2022-11-23T09:55:15.003Z,981.85
2022-11-23T09:56:15.102Z,981.76
2022-11-23T09:57:15.084Z,981.80
2022-11-23T09:58:15.082Z,981.86
2022-11-23T09:59:15.069Z,981.78
2022-11-23T10:00:15.533Z,981.86
2022-11-23T10:01:15.055Z,981.79
2022-11-23T10:02:14.955Z,981.77
2022-11-23T10:03:15.052Z,981.80
2022-11-23T10:04:14.933Z,981.78
2022-11-23T10:05:14.981Z,981.79
2022-11-23T10:06:14.938Z,981.80
2022-11-23T10:07:14.969Z,981.80
2022-11-23T10:08:14.991Z,981.79
2022-11-23T10:09:14.941Z,981.84
2022-11-23T10:10:14.871Z,981.74
2022-11-23T10:11:14.914Z,981.78
2022-11-23T10:12:14.905Z,981.73
2022-11-23T10:13:14.827Z,981.77
2022-11-23T10:14:14.847Z,981.82
2022-11-23T10:15:14.814Z,981.73
2022-11-23T10:16:14.845Z,981.74
2022-11-23T10:17:14.883Z,981.78
2022-11-23T10:18:14.917Z,981.77
2022-11-23T10:19:14.785Z,981.76
2022-11-23T10:20:15.103Z,981.73
2022-11-23T10:21:14.902Z,981.76
2022-11-23T10:22:14.842Z,981.74
2022-11-23T10:23:14.804Z,981.73
2022-11-23T10:24:14.822Z,981.74
2022-11-23T10:25:14.815Z,981.68
2022-11-23T10:26:14.778Z,981.72
2022-11-23T10:27:14.776Z,981.73
2022-11-23T10:28:14.838Z,981.70
2022-11-23T10:29:14.739Z,981.73
2022-11-23T10:30:14.796Z,981.79
2022-11-23T10:31:14.776Z,981.75
2022-11-23T10:32:14.721Z,981.71
2022-11-23T10:33:14.758Z,981.64
2022-11-23T10:34:14.635Z,981.67
2022-11-23T10:35:14.657Z,981.74
2022-11-23T10:36:14.695Z,981.70
2022-11-23T10:37:14.639Z,981.75
2022-11-23T10:38:18.841Z,981.75
2022-11-23T10:39:15.712Z,981.74
2022-11-23T10:40:14.807Z,981.67
2022-11-23T10:41:14.791Z,981.72
2022-11-23T10:42:14.730Z,981.66
2022-11-23T10:43:14.846Z,981.73
2022-11-23T10:44:15.031Z,981.74
2022-11-23T10:45:14.649Z,981.76
2022-11-23T10:46:14.664Z,981.74
2022-11-23T10:47:14.768Z,981.78
2022-11-23T10:48:14.625Z,981.76
2022-11-23T10:49:14.667Z,981.71
2022-11-23T10:50:14.683Z,981.79
2022-11-23T10:51:14.641Z,981.70
2022-11-23T10:52:14.676Z,981.80
2022-11-23T10:53:14.624Z,981.76
2022-11-23T10:54:14.692Z,981.74
2022-11-23T10:55:15.502Z,981.72
2022-11-23T10:56:14.620Z,981.70
2022-11-23T10:57:14.637Z,981.79
2022-11-23T10:58:14.647Z,981.75
2022-11-23T10:59:14.636Z,981.69
2022-11-23T11:00:14.482Z,981.73
2022-11-23T11:01:14.708Z,981.74
2022-11-23T11:02:15.523Z,981.68
2022-11-23T11:03:14.616Z,981.65
2022-11-23T11:04:14.413Z,981.68
2022-11-23T11:05:14.492Z,981.68
2022-11-23T11:06:14.376Z,981.66
2022-11-23T11:07:14.624Z,981.64
2022-11-23T11:08:14.384Z,981.66
2022-11-23T11:09:14.555Z,981.64
2022-11-23T11:10:14.450Z,981.63
2022-11-23T11:11:14.375Z,981.65
2022-11-23T11:12:14.486Z,981.56
2022-11-23T11:13:14.424Z,981.56
2022-11-23T11:14:14.470Z,981.56
2022-11-23T11:15:14.541Z,981.56
2022-11-23T11:16:14.492Z,981.55
2022-11-23T11:17:14.432Z,981.49
2022-11-23T11:18:14.422Z,981.56
2022-11-23T11:19:14.406Z,981.51
2022-11-23T11:20:14.671Z,981.58
2022-11-23T11:21:14.378Z,981.46
2022-11-23T11:22:14.404Z,981.59
2022-11-23T11:23:14.260Z,981.53
2022-11-23T11:24:14.283Z,981.53
2022-11-23T11:25:14.476Z,981.57
2022-11-23T11:26:14.566Z,981.54
2022-11-23T11:27:14.291Z,981.56
2022-11-23T11:28:14.393Z,981.50
2022-11-23T11:29:14.341Z,981.46
2022-11-23T11:30:14.452Z,981.52
2022-11-23T11:31:14.373Z,981.52
2022-11-23T11:32:14.368Z,981.48
2022-11-23T11:33:14.307Z,981.41
2022-11-23T11:34:14.404Z,981.52
2022-11-23T11:35:20.327Z,981.39
2022-11-23T11:36:16.339Z,981.42
2022-11-23T11:37:14.327Z,981.38
2022-11-23T11:38:14.418Z,981.38
2022-11-23T11:39:18.815Z,981.32
2022-11-23T11:40:16.326Z,981.37
2022-11-23T11:41:14.307Z,981.35
2022-11-23T11:42:14.218Z,981.35
2022-11-23T11:43:14.151Z,981.30
2022-11-23T11:44:14.151Z,981.29
2022-11-23T11:45:14.272Z,981.34
2022-11-23T11:46:30.338Z,981.23
2022-11-23T11:47:16.143Z,981.33
2022-11-23T11:48:14.160Z,981.35
2022-11-23T11:49:14.199Z,981.36
2022-11-23T11:50:14.198Z,981.28
2022-11-23T11:51:14.240Z,981.28
2022-11-23T11:52:14.207Z,981.30
2022-11-23T11:53:14.132Z,981.35
2022-11-23T11:54:14.159Z,981.24
2022-11-23T11:55:14.331Z,981.30
2022-11-23T11:56:14.117Z,981.26
2022-11-23T11:57:14.173Z,981.26
2022-11-23T11:58:14.177Z,981.21
2022-11-23T11:59:14.191Z,981.26
2022-11-23T12:00:14.071Z,981.25
2022-11-23T12:01:14.165Z,981.27
2022-11-23T12:02:14.159Z,981.18
2022-11-23T12:03:14.046Z,981.26
2022-11-23T12:04:14.106Z,981.20
2022-11-23T12:05:14.133Z,981.27
2022-11-23T12:06:14.124Z,981.24
2022-11-23T12:07:14.163Z,981.24
2022-11-23T12:08:13.966Z,981.20
2022-11-23T12:09:14.024Z,981.17
2022-11-23T12:10:13.979Z,981.17
2022-11-23T12:11:13.914Z,981.22
2022-11-23T12:12:14.045Z,981.21
2022-11-23T12:13:13.936Z,981.20
2022-11-23T12:14:14.042Z,981.21
2022-11-23T12:15:33.623Z,981.20
2022-11-23T12:16:15.921Z,981.23
2022-11-23T12:18:15.906Z,981.20
2022-11-23T12:19:13.888Z,981.08
2022-11-23T12:20:13.970Z,981.14
2022-11-23T12:21:14.112Z,981.23
2022-11-23T12:22:14.047Z,981.16
2022-11-23T12:23:13.992Z,981.17
2022-11-23T12:24:14.062Z,981.11
2022-11-23T12:25:14.118Z,981.20
2022-11-23T12:26:13.916Z,981.23
2022-11-23T12:27:13.964Z,981.20
2022-11-23T12:28:13.969Z,981.16
2022-11-23T12:29:13.942Z,981.24
2022-11-23T12:30:13.902Z,981.23
2022-11-23T12:31:14.017Z,981.20
2022-11-23T12:32:13.952Z,981.19
2022-11-23T12:33:13.875Z,981.12
2022-11-23T12:34:14.337Z,981.13
2022-11-23T12:35:13.933Z,981.12
2022-11-23T12:36:14.947Z,981.15
2022-11-23T12:37:13.805Z,981.15
2022-11-23T12:38:13.969Z,981.09
2022-11-23T12:39:13.938Z,981.12
2022-11-23T12:40:13.823Z,981.11
2022-11-23T12:41:13.825Z,981.09
2022-11-23T12:42:13.830Z,981.09
2022-11-23T12:43:13.767Z,981.05
2022-11-23T12:44:13.762Z,981.03
2022-11-23T12:45:13.765Z,981.09
2022-11-23T12:46:13.807Z,981.00
2022-11-23T12:47:13.849Z,980.96
2022-11-23T12:48:13.726Z,980.94
2022-11-23T12:49:13.727Z,980.94
2022-11-23T12:50:13.818Z,981.01
2022-11-23T12:51:13.836Z,980.99
2022-11-23T12:52:13.835Z,980.94